createdAt,value
2022-10-20T00:01:17.401Z,100958.28
2022-10-20T00:03:20.189Z,100961.72
2022-10-20T00:05:24.311Z,100958.28
2022-10-20T00:07:27.124Z,100958.25
2022-10-20T00:09:29.891Z,100953.03
2022-10-20T00:11:33.363Z,100954.72
2022-10-20T00:13:36.534Z,100951.25
2022-10-20T00:15:39.396Z,100946.88
2022-10-20T00:17:42.338Z,100939.91
2022-10-20T00:19:48.622Z,100937.34
2022-10-20T00:21:52.710Z,100936.44
2022-10-20T00:23:56.022Z,100939.03
2022-10-20T00:26:04.300Z,100949.44
2022-10-20T00:28:07.649Z,100949.44
2022-10-20T00:30:11.467Z,100949.34
2022-10-20T00:32:14.245Z,100937.97
2022-10-20T00:34:17.092Z,100944.09
2022-10-20T00:36:21.906Z,100944.09
2022-10-20T00:38:26.041Z,100946.69
2022-10-20T00:40:28.853Z,100946.59
2022-10-20T00:42:31.590Z,100944.75
2022-10-20T00:44:50.851Z,100943.94
2022-10-20T00:46:53.659Z,100931.72
2022-10-20T00:48:58.715Z,100930.00
2022-10-20T00:51:01.635Z,100925.69
2022-10-20T00:53:05.619Z,100921.31
2022-10-20T00:55:11.864Z,100924.75
2022-10-20T00:57:14.656Z,100916.91
2022-10-20T00:59:20.414Z,100916.00
2022-10-20T01:01:23.266Z,100910.75
2022-10-20T01:03:31.381Z,100905.56
2022-10-20T01:05:34.306Z,100899.44
2022-10-20T01:07:37.394Z,100894.28
2022-10-20T01:09:40.558Z,100895.97
2022-10-20T01:11:57.555Z,100896.81
2022-10-20T01:14:16.581Z,100894.09
2022-10-20T01:16:27.314Z,100894.88
2022-10-20T01:18:37.958Z,100899.22
2022-10-20T01:21:05.012Z,100900.06
2022-10-20T01:23:57.452Z,100900.81
2022-10-20T01:26:18.101Z,100897.31
2022-10-20T01:28:27.884Z,100904.31
2022-10-20T01:30:30.757Z,100898.19
2022-10-20T01:32:42.905Z,100892.97
2022-10-20T01:34:53.067Z,100882.56
2022-10-20T01:37:01.168Z,100889.50
2022-10-20T01:39:09.861Z,100883.50
2022-10-20T01:41:19.225Z,100874.84
2022-10-20T01:43:26.481Z,100872.25
2022-10-20T01:45:33.279Z,100873.13
2022-10-20T01:47:38.077Z,100863.53
2022-10-20T01:49:44.216Z,100873.94
2022-10-20T01:51:46.943Z,100860.06
2022-10-20T01:53:49.709Z,100862.63
2022-10-20T01:55:54.714Z,100872.25
2022-10-20T01:58:13.706Z,100853.09
2022-10-20T02:00:18.396Z,100854.78
2022-10-20T02:02:31.423Z,100854.56
2022-10-20T02:04:47.701Z,100847.69
2022-10-20T02:06:59.089Z,100848.59
2022-10-20T02:09:05.256Z,100853.00
2022-10-20T02:11:13.620Z,100853.00
2022-10-20T02:13:19.072Z,100845.94
2022-10-20T02:15:27.735Z,100849.34
2022-10-20T02:17:31.259Z,100843.25
2022-10-20T02:19:36.608Z,100841.44
2022-10-20T02:21:39.790Z,100841.44
2022-10-20T02:23:46.847Z,100836.22
2022-10-20T02:25:52.153Z,100837.06
2022-10-20T02:27:56.317Z,100842.28
2022-10-20T02:30:03.083Z,100847.56
2022-10-20T02:32:08.849Z,100838.91
2022-10-20T02:34:12.891Z,100827.59
2022-10-20T02:36:18.696Z,100820.63
2022-10-20T02:38:21.479Z,100818.03
2022-10-20T02:40:24.673Z,100822.38
2022-10-20T02:42:27.538Z,100822.28
2022-10-20T02:44:33.690Z,100815.28
2022-10-20T02:46:36.534Z,100816.94
2022-10-20T02:48:43.497Z,100837.69
2022-10-20T02:50:46.274Z,100842.63
2022-10-20T02:52:49.052Z,100840.91
2022-10-20T02:54:52.356Z,100838.41
2022-10-20T02:56:55.206Z,100842.00
2022-10-20T02:58:58.046Z,100836.09
2022-10-20T03:01:00.929Z,100831.78
2022-10-20T03:03:03.767Z,100819.63
2022-10-20T03:05:08.785Z,100819.63
2022-10-20T03:07:11.923Z,100823.63
2022-10-20T03:09:15.073Z,100823.69
2022-10-20T03:11:17.918Z,100828.88
2022-10-20T03:13:20.735Z,100830.59
2022-10-20T03:15:23.483Z,100836.75
2022-10-20T03:17:26.515Z,100835.84
2022-10-20T03:19:29.268Z,100825.41
2022-10-20T03:21:33.322Z,100828.03
2022-10-20T03:23:36.121Z,100823.72
2022-10-20T03:25:38.875Z,100809.03
2022-10-20T03:27:41.668Z,100815.13
2022-10-20T03:29:45.180Z,100822.84
2022-10-20T03:33:55.640Z,100808.97
2022-10-20T03:35:58.494Z,100806.41
2022-10-20T03:38:02.585Z,100802.09
2022-10-20T03:40:06.168Z,100795.16
2022-10-20T03:42:09.062Z,100793.41
2022-10-20T03:44:12.393Z,100784.72
2022-10-20T03:46:15.237Z,100786.47
2022-10-20T03:48:18.104Z,100774.28
2022-10-20T03:50:23.623Z,100775.97
2022-10-20T03:52:26.408Z,100769.94
2022-10-20T03:54:30.547Z,100769.97
2022-10-20T03:56:33.317Z,100768.19
2022-10-20T03:58:37.740Z,100756.91
2022-10-20T04:00:40.661Z,100766.47
2022-10-20T04:02:45.464Z,100772.56
2022-10-20T04:04:48.216Z,100779.38
2022-10-20T04:06:51.351Z,100781.06
2022-10-20T04:08:54.142Z,100780.13
2022-10-20T04:10:58.516Z,100784.47
2022-10-20T04:13:01.746Z,100781.81
2022-10-20T04:15:05.397Z,100789.53
2022-10-20T04:17:08.198Z,100792.91
2022-10-20T04:19:11.071Z,100783.34
2022-10-20T04:21:13.903Z,100779.06
2022-10-20T04:23:16.739Z,100771.19
2022-10-20T04:25:19.605Z,100775.56
2022-10-20T04:27:23.688Z,100773.91
2022-10-20T04:29:26.516Z,100765.22
2022-10-20T04:31:29.316Z,100752.28
2022-10-20T04:33:32.125Z,100746.28
2022-10-20T04:35:35.331Z,100741.97
2022-10-20T04:37:38.542Z,100744.56
2022-10-20T04:39:41.513Z,100743.72
2022-10-20T04:41:44.313Z,100740.28
2022-10-20T04:43:53.661Z,100734.19
2022-10-20T04:46:03.844Z,100744.63
2022-10-20T04:48:10.010Z,100731.59
2022-10-20T04:50:12.880Z,100746.41
2022-10-20T04:52:15.748Z,100742.88
2022-10-20T04:54:18.582Z,100742.81
2022-10-20T04:56:23.084Z,100743.69
2022-10-20T04:58:26.752Z,100739.41
2022-10-20T05:00:30.992Z,100731.59
2022-10-20T05:02:33.802Z,100723.75
2022-10-20T05:04:36.623Z,100722.00
2022-10-20T05:06:39.432Z,100715.91
2022-10-20T05:08:43.947Z,100716.75
2022-10-20T05:10:46.712Z,100725.41
2022-10-20T05:12:49.518Z,100729.75
2022-10-20T05:14:52.330Z,100724.53
2022-10-20T05:16:56.631Z,100713.19
2022-10-20T05:18:59.531Z,100706.25
2022-10-20T05:21:09.486Z,100695.84
2022-10-20T05:23:12.854Z,100682.00
2022-10-20T05:25:35.594Z,100684.63
2022-10-20T05:27:38.512Z,100688.03
2022-10-20T05:29:41.271Z,100698.41
2022-10-20T05:31:44.731Z,100707.75
2022-10-20T05:33:50.395Z,100709.25
2022-10-20T05:35:53.222Z,100711.72
2022-10-20T05:37:56.287Z,100702.97
2022-10-20T05:39:59.785Z,100706.56
2022-10-20T05:42:02.577Z,100695.31
2022-10-20T05:44:08.451Z,100696.13
2022-10-20T05:46:11.265Z,100691.81
2022-10-20T05:48:14.041Z,100689.09
2022-10-20T05:50:18.365Z,100695.97
2022-10-20T05:52:21.145Z,100705.56
2022-10-20T05:54:23.930Z,100691.72
2022-10-20T05:56:27.588Z,100697.75
2022-10-20T05:58:30.365Z,100688.22
2022-10-20T06:00:41.372Z,100685.63
2022-10-20T06:02:44.081Z,100682.91
2022-10-20T06:04:46.861Z,100682.16
2022-10-20T06:06:51.327Z,100687.31
2022-10-20T06:08:54.716Z,100691.72
2022-10-20T06:10:57.627Z,100696.00
2022-10-20T06:13:00.401Z,100698.56
2022-10-20T06:15:03.212Z,100708.88
2022-10-20T06:17:06.015Z,100717.38
2022-10-20T06:19:08.847Z,100717.44
2022-10-20T06:21:14.174Z,100716.53
2022-10-20T06:23:18.255Z,100721.63
2022-10-20T06:25:21.076Z,100744.00
2022-10-20T06:27:23.968Z,100749.09
2022-10-20T06:29:26.963Z,100765.47
2022-10-20T06:31:31.715Z,100766.41
2022-10-20T06:33:34.431Z,100761.38
2022-10-20T06:35:37.422Z,100758.16
2022-10-20T06:37:40.313Z,100758.25
2022-10-20T06:39:44.384Z,100760.13
2022-10-20T06:41:48.495Z,100761.84
2022-10-20T06:43:58.785Z,100760.91
2022-10-20T06:46:03.376Z,100759.97
2022-10-20T06:48:06.888Z,100764.84
2022-10-20T06:50:10.403Z,100775.09
2022-10-20T06:52:13.178Z,100765.72
2022-10-20T06:54:16.064Z,100773.94
2022-10-20T06:56:22.870Z,100774.03
2022-10-20T06:58:25.939Z,100768.03
2022-10-20T07:00:28.693Z,100771.47
2022-10-20T07:02:31.419Z,100769.16
2022-10-20T07:04:34.189Z,100753.00
2022-10-20T07:06:39.523Z,100744.19
2022-10-20T07:08:42.778Z,100742.41
2022-10-20T07:10:45.634Z,100742.50
2022-10-20T07:12:49.751Z,100734.09
2022-10-20T07:14:52.555Z,100730.69
2022-10-20T07:16:55.334Z,100735.91
2022-10-20T07:18:58.439Z,100734.16
2022-10-20T07:21:02.940Z,100740.22
2022-10-20T07:23:05.720Z,100740.25
2022-10-20T07:25:09.327Z,100742.94
2022-10-20T07:27:12.160Z,100743.84
2022-10-20T07:29:16.252Z,100755.19
2022-10-20T07:31:22.659Z,100748.38
2022-10-20T07:33:25.634Z,100750.16
2022-10-20T07:35:28.409Z,100745.88
2022-10-20T07:37:31.399Z,100736.38
2022-10-20T07:39:34.344Z,100744.22
2022-10-20T07:41:39.430Z,100742.50
2022-10-20T07:43:43.370Z,100745.13
2022-10-20T07:45:47.605Z,100751.25
2022-10-20T07:47:50.417Z,100752.06
2022-10-20T07:49:53.162Z,100744.28
2022-10-20T07:51:55.999Z,100735.69
2022-10-20T07:54:00.814Z,100738.34
2022-10-20T07:56:03.425Z,100732.22
2022-10-20T07:58:06.355Z,100720.19
2022-10-20T08:00:10.592Z,100710.75
2022-10-20T08:02:16.374Z,100721.25
2022-10-20T08:04:19.145Z,100737.78
2022-10-20T08:06:22.132Z,100729.19
2022-10-20T08:08:25.039Z,100736.09
2022-10-20T08:10:27.775Z,100737.81
2022-10-20T08:12:30.576Z,100741.25
2022-10-20T08:14:35.126Z,100741.25
2022-10-20T08:16:39.487Z,100742.06
2022-10-20T08:18:43.759Z,100737.78
2022-10-20T08:20:46.850Z,100747.19
2022-10-20T08:22:50.394Z,100745.53
2022-10-20T08:24:54.031Z,100754.31
2022-10-20T08:26:56.751Z,100742.22
2022-10-20T08:28:59.602Z,100725.91
2022-10-20T08:31:03.780Z,100713.84
2022-10-20T08:33:06.533Z,100719.81
2022-10-20T08:35:11.205Z,100722.38
2022-10-20T08:37:13.889Z,100721.38
2022-10-20T08:39:20.035Z,100718.81
2022-10-20T08:41:26.990Z,100731.06
2022-10-20T08:43:32.389Z,100723.41
2022-10-20T08:45:38.302Z,100720.78
2022-10-20T08:47:41.611Z,100713.84
2022-10-20T08:49:46.703Z,100713.84
2022-10-20T08:51:51.067Z,100721.69
2022-10-20T08:53:57.863Z,100738.22
2022-10-20T08:56:00.650Z,100746.97
2022-10-20T08:58:05.329Z,100748.75
2022-10-20T09:00:15.253Z,100740.88
2022-10-20T09:02:19.117Z,100744.41
2022-10-20T09:04:25.718Z,100735.78
2022-10-20T09:06:28.885Z,100744.50
2022-10-20T09:08:37.156Z,100744.53
2022-10-20T09:10:42.903Z,100742.78
2022-10-20T09:12:48.541Z,100749.72
2022-10-20T09:14:51.322Z,100736.69
2022-10-20T09:17:00.250Z,100756.81
2022-10-20T09:19:03.900Z,100744.59
2022-10-20T09:21:12.113Z,100740.28
2022-10-20T09:23:39.425Z,100748.16
2022-10-20T09:25:43.221Z,100753.34
2022-10-20T09:27:46.701Z,100749.94
2022-10-20T09:29:49.655Z,100755.22
2022-10-20T09:31:54.853Z,100759.59
2022-10-20T09:33:57.582Z,100759.63
2022-10-20T09:36:05.615Z,100750.09
2022-10-20T09:38:19.169Z,100731.03
2022-10-20T09:40:24.091Z,100725.84
2022-10-20T09:42:31.103Z,100739.81
2022-10-20T09:44:36.257Z,100729.34
2022-10-20T09:46:45.295Z,100724.97
2022-10-20T09:48:50.229Z,100725.88
2022-10-20T09:50:56.027Z,100731.97
2022-10-20T09:53:01.806Z,100728.50
2022-10-20T09:55:09.164Z,100731.13
2022-10-20T09:57:18.492Z,100733.72
2022-10-20T09:59:26.357Z,100739.88
2022-10-20T10:01:29.520Z,100725.91
2022-10-20T10:03:40.265Z,100731.13
2022-10-20T10:05:43.050Z,100715.44
2022-10-20T10:07:46.379Z,100709.34
2022-10-20T10:09:52.480Z,100698.91
2022-10-20T10:12:00.308Z,100703.28
2022-10-20T10:14:04.109Z,100696.31
2022-10-20T10:16:10.822Z,100704.22
2022-10-20T10:18:22.404Z,100705.94
2022-10-20T10:20:35.474Z,100705.94
2022-10-20T10:22:39.332Z,100704.16
2022-10-20T10:24:46.371Z,100690.25
2022-10-20T10:26:54.287Z,100675.44
2022-10-20T10:28:59.213Z,100662.34
2022-10-20T10:31:22.034Z,100684.16
2022-10-20T10:33:27.652Z,100677.16
2022-10-20T10:35:34.310Z,100681.53
2022-10-20T10:37:39.673Z,100675.41
2022-10-20T10:39:43.129Z,100667.53
2022-10-20T10:41:59.287Z,100639.47
2022-10-20T10:44:10.959Z,100642.13
2022-10-20T10:46:20.129Z,100642.97
2022-10-20T10:48:48.639Z,100643.84
2022-10-20T10:50:57.913Z,100633.34
2022-10-20T10:53:25.158Z,100644.72
2022-10-20T10:55:48.338Z,100654.31
2022-10-20T10:58:02.434Z,100643.84
2022-10-20T11:00:15.932Z,100639.41
2022-10-20T11:02:46.526Z,100635.97
2022-10-20T11:05:07.407Z,100663.06
2022-10-20T11:07:20.277Z,100665.69
2022-10-20T11:09:33.922Z,100671.78
2022-10-20T11:11:47.751Z,100667.44
2022-10-20T11:13:57.350Z,100657.84
2022-10-20T11:16:09.132Z,100659.59
2022-10-20T11:18:20.832Z,100656.09
2022-10-20T11:20:33.911Z,100652.59
2022-10-20T11:22:45.478Z,100643.84
2022-10-20T11:24:55.517Z,100645.59
2022-10-20T11:27:05.022Z,100643.81
2022-10-20T11:29:15.304Z,100628.06
2022-10-20T11:31:27.873Z,100631.63
2022-10-20T11:33:40.788Z,100630.69
2022-10-20T11:35:51.240Z,100625.47
2022-10-20T11:38:14.678Z,100630.72
2022-10-20T11:40:24.103Z,100618.53
2022-10-20T11:42:36.049Z,100630.78
2022-10-20T11:44:41.796Z,100630.78
2022-10-20T11:46:49.391Z,100636.03
2022-10-20T11:48:59.120Z,100648.22
2022-10-20T11:51:31.260Z,100643.84
2022-10-20T11:53:46.580Z,100644.72
2022-10-20T11:56:24.634Z,100656.97
2022-10-20T11:58:38.841Z,100648.22
2022-10-20T12:00:59.568Z,100650.84
2022-10-20T12:03:36.688Z,100651.72
2022-10-20T12:05:56.864Z,100640.34
2022-10-20T12:08:31.006Z,100642.09
2022-10-20T12:10:42.291Z,100643.84
2022-10-20T12:12:54.242Z,100632.47
2022-10-20T12:15:00.003Z,100641.19
2022-10-20T12:17:15.929Z,100639.47
2022-10-20T12:19:20.922Z,100633.34
2022-10-20T12:24:05.665Z,100633.31
2022-10-20T12:26:56.368Z,100629.00
2022-10-20T12:28:59.806Z,100622.03
2022-10-20T12:31:04.515Z,100620.22
2022-10-20T12:33:17.223Z,100601.03
2022-10-20T12:35:51.678Z,100584.44
2022-10-20T12:37:56.861Z,100582.69
2022-10-20T12:40:21.922Z,100583.56
2022-10-20T12:42:29.696Z,100600.16
2022-10-20T12:44:41.576Z,100610.66
2022-10-20T12:46:53.584Z,100608.06
2022-10-20T12:49:00.361Z,100610.69
2022-10-20T12:51:07.505Z,100608.94
2022-10-20T12:53:20.344Z,100609.81
2022-10-20T12:55:31.353Z,100601.91
2022-10-20T12:57:38.286Z,100614.16
2022-10-20T12:59:41.841Z,100601.91
2022-10-20T13:02:22.224Z,100598.41
2022-10-20T13:04:53.893Z,100594.91
2022-10-20T13:06:56.792Z,100594.03
2022-10-20T13:09:22.375Z,100573.06
2022-10-20T13:11:45.986Z,100571.28
2022-10-20T13:14:03.852Z,100578.31
2022-10-20T13:16:16.731Z,100587.94
2022-10-20T13:18:26.811Z,100573.06
2022-10-20T13:20:40.452Z,100569.56
2022-10-20T13:22:47.954Z,100573.03
2022-10-20T13:24:53.613Z,100568.69
2022-10-20T13:27:05.120Z,100563.47
2022-10-20T13:29:14.442Z,100552.09
2022-10-20T13:31:25.277Z,100544.22
2022-10-20T13:33:51.521Z,100527.59
2022-10-20T13:36:04.742Z,100548.56
2022-10-20T13:38:17.494Z,100562.56
2022-10-20T13:40:27.533Z,100579.19
2022-10-20T13:42:45.763Z,100585.28
2022-10-20T13:44:59.872Z,100580.06
2022-10-20T13:47:14.519Z,100580.91
2022-10-20T13:49:39.001Z,100578.31
2022-10-20T13:51:45.049Z,100572.16
2022-10-20T13:53:50.953Z,100573.94
2022-10-20T13:56:01.344Z,100575.66
2022-10-20T13:58:09.603Z,100579.19
2022-10-20T14:00:19.522Z,100575.66
2022-10-20T14:02:25.524Z,100575.66
2022-10-20T14:04:30.830Z,100580.06
2022-10-20T14:06:36.310Z,100580.06
2022-10-20T14:08:44.302Z,100585.31
2022-10-20T14:10:52.136Z,100590.53
2022-10-20T14:12:56.012Z,100587.94
2022-10-20T14:15:02.228Z,100583.56
2022-10-20T14:17:08.824Z,100578.28
2022-10-20T14:19:14.010Z,100573.94
2022-10-20T14:21:18.952Z,100580.94
2022-10-20T14:23:23.209Z,100571.31
2022-10-20T14:25:27.194Z,100566.97
2022-10-20T14:27:32.374Z,100573.94
2022-10-20T14:29:39.855Z,100571.31
2022-10-20T14:31:45.162Z,100566.09
2022-10-20T14:33:49.513Z,100567.84
2022-10-20T14:35:54.688Z,100559.09
2022-10-20T14:38:02.560Z,100559.13
2022-10-20T14:40:09.648Z,100563.47
2022-10-20T14:42:23.476Z,100558.22
2022-10-20T14:44:31.456Z,100547.75
2022-10-20T14:46:36.080Z,100539.88
2022-10-20T14:48:45.076Z,100538.97
2022-10-20T14:50:47.925Z,100542.50
2022-10-20T14:52:53.971Z,100536.38
2022-10-20T14:54:57.394Z,100538.13
2022-10-20T14:57:02.216Z,100535.47
2022-10-20T14:59:04.981Z,100524.13
2022-10-20T15:01:24.508Z,100521.50
2022-10-20T15:03:27.306Z,100528.50
2022-10-20T15:05:39.770Z,100525.00
2022-10-20T15:07:42.747Z,100518.88
2022-10-20T15:09:48.063Z,100527.66
2022-10-20T15:11:51.019Z,100518.03
2022-10-20T15:13:56.180Z,100524.13
2022-10-20T15:16:00.107Z,100528.50
2022-10-20T15:18:18.146Z,100525.03
2022-10-20T15:20:39.830Z,100515.41
2022-10-20T15:22:43.412Z,100507.53
2022-10-20T15:24:48.834Z,100501.44
2022-10-20T15:26:51.735Z,100504.06
2022-10-20T15:28:54.570Z,100511.09
2022-10-20T15:30:58.052Z,100504.13
2022-10-20T15:33:00.874Z,100508.44
2022-10-20T15:35:03.740Z,100504.09
2022-10-20T15:37:07.935Z,100508.44
2022-10-20T15:39:11.996Z,100516.38
2022-10-20T15:41:15.720Z,100513.81
2022-10-20T15:43:19.773Z,100518.19
2022-10-20T15:45:25.114Z,100526.88
2022-10-20T15:47:28.008Z,100528.63
2022-10-20T15:49:30.806Z,100523.38
2022-10-20T15:51:35.786Z,100506.75
2022-10-20T15:53:40.215Z,100516.38
2022-10-20T15:55:43.725Z,100515.50
2022-10-20T15:57:46.525Z,100526.81
2022-10-20T15:59:49.523Z,100521.56
2022-10-20T16:01:52.357Z,100523.34
2022-10-20T16:03:55.713Z,100521.59
2022-10-20T16:05:58.475Z,100518.13
2022-10-20T16:08:01.317Z,100528.56
2022-10-20T16:10:06.653Z,100522.44
2022-10-20T16:12:11.194Z,100521.56
2022-10-20T16:14:15.421Z,100511.16
2022-10-20T16:16:21.868Z,100503.22
2022-10-20T16:18:24.667Z,100499.69
2022-10-20T16:20:27.458Z,100488.34
2022-10-20T16:22:30.360Z,100493.59
2022-10-20T16:24:33.209Z,100499.78
2022-10-20T16:26:37.320Z,100497.16
2022-10-20T16:28:40.186Z,100499.78
2022-10-20T16:30:43.080Z,100507.63
2022-10-20T16:32:45.927Z,100504.16
2022-10-20T16:34:48.768Z,100507.66
2022-10-20T16:36:51.580Z,100497.16
2022-10-20T16:38:56.310Z,100501.56
2022-10-20T16:41:00.285Z,100502.44
2022-10-20T16:43:04.495Z,100513.78
2022-10-20T16:45:08.390Z,100511.19
2022-10-20T16:47:11.815Z,100514.72
2022-10-20T16:49:14.565Z,100518.19
2022-10-20T16:51:18.556Z,100516.44
2022-10-20T16:53:21.778Z,100509.47
2022-10-20T16:55:24.634Z,100506.84
2022-10-20T16:57:28.250Z,100513.81
2022-10-20T16:59:32.367Z,100510.34
2022-10-20T17:01:35.474Z,100508.59
2022-10-20T17:05:55.222Z,100484.09
2022-10-20T17:07:58.493Z,100478.88
2022-10-20T17:10:01.311Z,100471.91
2022-10-20T17:12:04.553Z,100478.06
2022-10-20T17:14:07.451Z,100476.31
2022-10-20T17:16:13.579Z,100483.28
2022-10-20T17:18:16.512Z,100489.44
2022-10-20T17:20:19.314Z,100490.34
2022-10-20T17:22:22.177Z,100488.59
2022-10-20T17:24:25.175Z,100487.72
2022-10-20T17:26:31.224Z,100481.59
2022-10-20T17:28:36.562Z,100479.84
2022-10-20T17:30:42.629Z,100477.22
2022-10-20T17:32:48.023Z,100472.84
2022-10-20T17:34:50.774Z,100478.97
2022-10-20T17:36:53.531Z,100485.06
2022-10-20T17:38:58.239Z,100495.53
2022-10-20T17:41:04.128Z,100493.75
2022-10-20T17:43:06.894Z,100499.91
2022-10-20T17:45:10.337Z,100504.25
2022-10-20T17:47:13.081Z,100503.41
2022-10-20T17:49:17.314Z,100500.75
2022-10-20T17:51:21.604Z,100492.03
2022-10-20T17:53:24.364Z,100482.38
2022-10-20T17:55:27.157Z,100477.16
2022-10-20T17:57:30.585Z,100457.91
2022-10-20T17:59:38.301Z,100451.84
2022-10-20T18:01:50.325Z,100454.47
2022-10-20T18:03:56.523Z,100460.63
2022-10-20T18:06:07.278Z,100472.00
2022-10-20T18:08:10.105Z,100480.75
2022-10-20T18:10:13.149Z,100483.34
2022-10-20T18:12:16.163Z,100482.47
2022-10-20T18:14:19.352Z,100481.56
2022-10-20T18:16:22.583Z,100468.47
2022-10-20T18:18:25.449Z,100466.66
2022-10-20T18:20:32.169Z,100472.00
2022-10-20T18:22:38.610Z,100468.50
2022-10-20T18:24:41.624Z,100458.94
2022-10-20T18:26:44.856Z,100451.97
2022-10-20T18:28:49.301Z,100451.06
2022-10-20T18:30:52.842Z,100444.00
2022-10-20T18:32:55.603Z,100434.44
2022-10-20T18:34:58.362Z,100430.94
2022-10-20T18:37:03.389Z,100430.09
2022-10-20T18:39:08.919Z,100427.50
2022-10-20T18:41:14.235Z,100435.38
2022-10-20T18:43:18.015Z,100431.91
2022-10-20T18:45:23.734Z,100424.88
2022-10-20T18:47:28.697Z,100424.03
2022-10-20T18:49:31.521Z,100421.41
2022-10-20T18:51:35.299Z,100424.03
2022-10-20T18:55:58.348Z,100429.34
2022-10-20T18:58:01.149Z,100425.00
2022-10-20T19:00:04.652Z,100418.09
2022-10-20T19:02:07.551Z,100425.91
2022-10-20T19:04:11.487Z,100425.06
2022-10-20T19:06:16.633Z,100424.19
2022-10-20T19:08:19.359Z,100422.41
2022-10-20T19:10:22.167Z,100416.31
2022-10-20T19:12:26.400Z,100405.81
2022-10-20T19:14:29.229Z,100410.13
2022-10-20T19:16:34.179Z,100392.66
2022-10-20T19:18:38.889Z,100411.84
2022-10-20T19:20:41.648Z,100414.53
2022-10-20T19:22:44.457Z,100401.41
2022-10-20T19:24:47.432Z,100391.72
2022-10-20T19:26:57.533Z,100392.59
2022-10-20T19:29:19.276Z,100398.78
2022-10-20T19:31:25.217Z,100398.84
2022-10-20T19:33:29.101Z,100393.59
2022-10-20T19:35:32.102Z,100406.69
2022-10-20T19:37:34.938Z,100409.31
2022-10-20T19:39:40.080Z,100414.56
2022-10-20T19:41:42.942Z,100410.22
2022-10-20T19:43:45.835Z,100404.06
2022-10-20T19:45:49.979Z,100413.66
2022-10-20T19:47:52.765Z,100423.28
2022-10-20T19:49:55.679Z,100434.63
2022-10-20T19:51:58.512Z,100443.38
2022-10-20T19:54:01.923Z,100442.53
2022-10-20T19:56:05.185Z,100438.13
2022-10-20T20:00:12.658Z,100436.38
2022-10-20T20:02:16.817Z,100431.13
2022-10-20T20:04:19.849Z,100432.81
2022-10-20T20:06:23.565Z,100428.44
2022-10-20T20:08:26.943Z,100418.78
2022-10-20T20:10:29.842Z,100419.72
2022-10-20T20:12:32.794Z,100409.19
2022-10-20T20:14:35.580Z,100415.31
2022-10-20T20:16:39.124Z,100415.31
2022-10-20T20:18:43.214Z,100403.94
2022-10-20T20:20:47.677Z,100405.78
2022-10-20T20:22:50.466Z,100413.63
2022-10-20T20:24:53.242Z,100424.09
2022-10-20T20:26:56.025Z,100421.44
2022-10-20T20:28:59.525Z,100430.19
2022-10-20T20:31:04.058Z,100427.59
2022-10-20T20:33:06.793Z,100419.72
2022-10-20T20:35:11.291Z,100417.97
2022-10-20T20:37:14.076Z,100418.88
2022-10-20T20:39:16.894Z,100417.97
2022-10-20T20:41:20.694Z,100418.84
2022-10-20T20:43:23.903Z,100426.72
2022-10-20T20:45:26.801Z,100423.22
2022-10-20T20:47:31.488Z,100415.34
2022-10-20T20:49:35.111Z,100417.16
2022-10-20T20:51:39.205Z,100424.97
2022-10-20T20:53:42.401Z,100415.34
2022-10-20T20:55:53.555Z,100412.72
2022-10-20T20:57:56.368Z,100406.63
2022-10-20T20:59:59.091Z,100411.00
2022-10-20T21:02:01.855Z,100399.69
2022-10-20T21:04:10.062Z,100395.28
2022-10-20T21:06:15.434Z,100387.44
2022-10-20T21:08:19.574Z,100379.59
2022-10-20T21:10:22.284Z,100372.50
2022-10-20T21:12:28.660Z,100356.78
2022-10-20T21:14:33.332Z,100348.91
2022-10-20T21:16:37.611Z,100339.38
2022-10-20T21:18:41.396Z,100321.81
2022-10-20T21:20:44.194Z,100305.28
2022-10-20T21:22:47.040Z,100304.41
2022-10-20T21:24:51.282Z,100297.34
2022-10-20T21:26:54.156Z,100308.72
2022-10-20T21:28:57.513Z,100319.25
2022-10-20T21:31:01.672Z,100341.13
2022-10-20T21:33:04.571Z,100350.69
2022-10-20T21:35:07.877Z,100357.69
2022-10-20T21:37:10.647Z,100363.81
2022-10-20T21:39:16.419Z,100367.25
2022-10-20T21:41:22.550Z,100353.22
2022-10-20T21:43:25.373Z,100376.81
2022-10-20T21:45:28.087Z,100376.84
2022-10-20T21:47:30.847Z,100370.72
2022-10-20T21:49:33.805Z,100371.56
2022-10-20T21:51:38.620Z,100372.41
2022-10-20T21:53:41.762Z,100375.06
2022-10-20T21:55:44.480Z,100367.19
2022-10-20T21:57:48.626Z,100362.78
2022-10-20T21:59:51.741Z,100373.28
2022-10-20T22:01:56.925Z,100361.91
2022-10-20T22:03:59.688Z,100354.09
2022-10-20T22:06:02.960Z,100353.22
2022-10-20T22:08:06.363Z,100343.59
2022-10-20T22:10:09.613Z,100340.13
2022-10-20T22:12:12.449Z,100333.16
2022-10-20T22:14:16.499Z,100325.25
2022-10-20T22:16:22.418Z,100315.63
2022-10-20T22:18:25.251Z,100308.66
2022-10-20T22:20:28.006Z,100313.00
2022-10-20T22:22:31.059Z,100318.31
2022-10-20T22:24:35.613Z,100327.03
2022-10-20T22:26:39.055Z,100325.25
2022-10-20T22:28:41.862Z,100327.88
2022-10-20T22:30:46.026Z,100329.63
2022-10-20T22:32:48.766Z,100312.97
2022-10-20T22:34:51.507Z,100305.91
2022-10-20T22:36:54.250Z,100298.97
2022-10-20T22:38:57.089Z,100298.16
2022-10-20T22:41:00.390Z,100320.00
2022-10-20T22:43:03.196Z,100335.75
2022-10-20T22:45:06.866Z,100328.81
2022-10-20T22:47:10.973Z,100351.47
2022-10-20T22:49:14.385Z,100384.69
2022-10-20T22:51:17.693Z,100386.47
2022-10-20T22:53:20.726Z,100356.75
2022-10-20T22:55:23.492Z,100346.22
2022-10-20T22:57:26.242Z,100354.03
2022-10-20T22:59:28.961Z,100361.88
2022-10-20T23:01:31.866Z,100372.38
2022-10-20T23:03:36.107Z,100400.38
2022-10-20T23:05:38.950Z,100415.31
2022-10-20T23:07:41.747Z,100391.75
2022-10-20T23:09:44.508Z,100375.03
2022-10-20T23:11:47.272Z,100395.09
2022-10-20T23:13:50.910Z,100404.75
2022-10-20T23:15:54.074Z,100413.53
2022-10-20T23:17:56.811Z,100415.31
2022-10-20T23:20:00.926Z,100410.97
2022-10-20T23:22:03.725Z,100406.56
2022-10-20T23:24:07.068Z,100415.31
2022-10-20T23:26:10.105Z,100413.53
2022-10-20T23:28:12.819Z,100421.38
2022-10-20T23:30:15.686Z,100416.13
2022-10-20T23:32:18.532Z,100419.63
2022-10-20T23:34:21.439Z,100409.97
2022-10-20T23:36:25.633Z,100402.97
2022-10-20T23:38:28.376Z,100416.94
2022-10-20T23:40:31.331Z,100421.28
2022-10-20T23:42:34.138Z,100419.50
2022-10-20T23:44:36.859Z,100402.91
2022-10-20T23:46:39.804Z,100393.22
2022-10-20T23:48:42.552Z,100383.66
2022-10-20T23:50:45.677Z,100373.16
2022-10-20T23:52:49.889Z,100363.53
2022-10-20T23:54:52.664Z,100355.69
2022-10-20T23:56:55.465Z,100338.25
2022-10-20T23:58:58.259Z,100345.25
